sensor_id;sensor_type;location;lat;lon;timestamp;P1;P2;P0
62591;PMS5003;48659;41.622;2.276;2022-08-19T00:01:37;13;13;
62591;PMS5003;48659;41.622;2.276;2022-08-19T00:04:12;15;13;
62591;PMS5003;48659;41.622;2.276;2022-08-19T00:06:41;16;15;
62591;PMS5003;48659;41.622;2.276;2022-08-19T00:09:11;16;14;
62591;PMS5003;48659;41.622;2.276;2022-08-19T00:11:40;16;16;
62591;PMS5003;48659;41.622;2.276;2022-08-19T00:16:15;16;16;
62591;PMS5003;48659;41.622;2.276;2022-08-19T00:18:44;14;13;
62591;PMS5003;48659;41.622;2.276;2022-08-19T00:21:16;17;16;
62591;PMS5003;48659;41.622;2.276;2022-08-19T00:23:43;13;13;
62591;PMS5003;48659;41.622;2.276;2022-08-19T00:26:16;14;14;
62591;PMS5003;48659;41.622;2.276;2022-08-19T00:28:43;17;17;
62591;PMS5003;48659;41.622;2.276;2022-08-19T00:31:14;12;12;
62591;PMS5003;48659;41.622;2.276;2022-08-19T00:33:43;15;13;
62591;PMS5003;48659;41.622;2.276;2022-08-19T00:36:10;13;11;
62591;PMS5003;48659;41.622;2.276;2022-08-19T00:38:38;11;11;
62591;PMS5003;48659;41.622;2.276;2022-08-19T00:41:07;12;12;
62591;PMS5003;48659;41.622;2.276;2022-08-19T00:43:36;10;10;
62591;PMS5003;48659;41.622;2.276;2022-08-19T00:46:04;10;10;
62591;PMS5003;48659;41.622;2.276;2022-08-19T00:48:31;8;8;
62591;PMS5003;48659;41.622;2.276;2022-08-19T00:51:00;11;11;
62591;PMS5003;48659;41.622;2.276;2022-08-19T00:53:28;13;10;
62591;PMS5003;48659;41.622;2.276;2022-08-19T00:55:58;13;11;
62591;PMS5003;48659;41.622;2.276;2022-08-19T00:58:30;11;11;
62591;PMS5003;48659;41.622;2.276;2022-08-19T01:01:01;12;11;
62591;PMS5003;48659;41.622;2.276;2022-08-19T01:03:30;9;9;
62591;PMS5003;48659;41.622;2.276;2022-08-19T01:05:57;19;16;
62591;PMS5003;48659;41.622;2.276;2022-08-19T01:08:24;12;12;
62591;PMS5003;48659;41.622;2.276;2022-08-19T01:10:52;12;10;
62591;PMS5003;48659;41.622;2.276;2022-08-19T01:13:23;10;9;
62591;PMS5003;48659;41.622;2.276;2022-08-19T01:15:54;7;7;
62591;PMS5003;48659;41.622;2.276;2022-08-19T01:18:25;10;10;
62591;PMS5003;48659;41.622;2.276;2022-08-19T01:20:54;9;9;
62591;PMS5003;48659;41.622;2.276;2022-08-19T01:23:25;11;11;
62591;PMS5003;48659;41.622;2.276;2022-08-19T01:25:52;12;10;
62591;PMS5003;48659;41.622;2.276;2022-08-19T01:28:21;12;8;
62591;PMS5003;48659;41.622;2.276;2022-08-19T01:30:50;10;9;
62591;PMS5003;48659;41.622;2.276;2022-08-19T01:33:18;11;10;
62591;PMS5003;48659;41.622;2.276;2022-08-19T01:35:46;11;10;
62591;PMS5003;48659;41.622;2.276;2022-08-19T01:38:19;12;9;
62591;PMS5003;48659;41.622;2.276;2022-08-19T01:40:50;9;8;
62591;PMS5003;48659;41.622;2.276;2022-08-19T01:43:18;9;9;
62591;PMS5003;48659;41.622;2.276;2022-08-19T01:45:46;6;6;
62591;PMS5003;48659;41.622;2.276;2022-08-19T01:48:15;8;7;
62591;PMS5003;48659;41.622;2.276;2022-08-19T01:50:43;7;7;
62591;PMS5003;48659;41.622;2.276;2022-08-19T01:53:14;11;10;
62591;PMS5003;48659;41.622;2.276;2022-08-19T01:55:42;10;8;
62591;PMS5003;48659;41.622;2.276;2022-08-19T01:58:17;9;7;
62591;PMS5003;48659;41.622;2.276;2022-08-19T02:00:48;8;8;
62591;PMS5003;48659;41.622;2.276;2022-08-19T02:03:15;7;7;
62591;PMS5003;48659;41.622;2.276;2022-08-19T02:05:43;7;5;
62591;PMS5003;48659;41.622;2.276;2022-08-19T02:08:14;6;6;
62591;PMS5003;48659;41.622;2.276;2022-08-19T02:10:42;7;7;
62591;PMS5003;48659;41.622;2.276;2022-08-19T02:13:14;8;7;
62591;PMS5003;48659;41.622;2.276;2022-08-19T02:15:42;7;7;
62591;PMS5003;48659;41.622;2.276;2022-08-19T02:18:13;8;7;
62591;PMS5003;48659;41.622;2.276;2022-08-19T02:20:42;8;7;
62591;PMS5003;48659;41.622;2.276;2022-08-19T02:23:14;6;6;
62591;PMS5003;48659;41.622;2.276;2022-08-19T02:25:44;9;9;
62591;PMS5003;48659;41.622;2.276;2022-08-19T02:28:14;7;7;
62591;PMS5003;48659;41.622;2.276;2022-08-19T02:30:41;6;6;
62591;PMS5003;48659;41.622;2.276;2022-08-19T02:33:09;6;6;
62591;PMS5003;48659;41.622;2.276;2022-08-19T02:35:37;8;7;
62591;PMS5003;48659;41.622;2.276;2022-08-19T02:38:08;10;8;
62591;PMS5003;48659;41.622;2.276;2022-08-19T02:40:36;6;6;
62591;PMS5003;48659;41.622;2.276;2022-08-19T02:43:04;10;8;
62591;PMS5003;48659;41.622;2.276;2022-08-19T02:45:34;11;11;
62591;PMS5003;48659;41.622;2.276;2022-08-19T02:48:04;6;5;
62591;PMS5003;48659;41.622;2.276;2022-08-19T02:50:31;7;7;
62591;PMS5003;48659;41.622;2.276;2022-08-19T02:52:59;7;7;
62591;PMS5003;48659;41.622;2.276;2022-08-19T02:55:26;7;7;
62591;PMS5003;48659;41.622;2.276;2022-08-19T02:57:53;10;8;
62591;PMS5003;48659;41.622;2.276;2022-08-19T03:00:21;6;6;
62591;PMS5003;48659;41.622;2.276;2022-08-19T03:02:49;7;7;
62591;PMS5003;48659;41.622;2.276;2022-08-19T03:05:16;9;7;
62591;PMS5003;48659;41.622;2.276;2022-08-19T03:07:44;7;7;
62591;PMS5003;48659;41.622;2.276;2022-08-19T03:10:16;8;7;
62591;PMS5003;48659;41.622;2.276;2022-08-19T03:12:44;7;6;
62591;PMS5003;48659;41.622;2.276;2022-08-19T03:15:11;9;9;
62591;PMS5003;48659;41.622;2.276;2022-08-19T03:17:38;11;10;
62591;PMS5003;48659;41.622;2.276;2022-08-19T03:20:06;9;9;
62591;PMS5003;48659;41.622;2.276;2022-08-19T03:22:34;8;8;
62591;PMS5003;48659;41.622;2.276;2022-08-19T03:25:01;8;8;
62591;PMS5003;48659;41.622;2.276;2022-08-19T03:27:29;7;7;
62591;PMS5003;48659;41.622;2.276;2022-08-19T03:29:56;8;8;
62591;PMS5003;48659;41.622;2.276;2022-08-19T03:32:23;11;10;
62591;PMS5003;48659;41.622;2.276;2022-08-19T03:34:51;11;7;
62591;PMS5003;48659;41.622;2.276;2022-08-19T03:37:19;6;6;
62591;PMS5003;48659;41.622;2.276;2022-08-19T03:39:46;8;8;
62591;PMS5003;48659;41.622;2.276;2022-08-19T03:42:15;12;12;
62591;PMS5003;48659;41.622;2.276;2022-08-19T03:44:43;11;10;
62591;PMS5003;48659;41.622;2.276;2022-08-19T03:47:16;8;8;
62591;PMS5003;48659;41.622;2.276;2022-08-19T03:49:43;6;6;
62591;PMS5003;48659;41.622;2.276;2022-08-19T03:52:15;8;8;
62591;PMS5003;48659;41.622;2.276;2022-08-19T03:54:42;6;6;
62591;PMS5003;48659;41.622;2.276;2022-08-19T03:57:10;9;8;
62591;PMS5003;48659;41.622;2.276;2022-08-19T03:59:37;6;6;
62591;PMS5003;48659;41.622;2.276;2022-08-19T04:02:07;8;8;
62591;PMS5003;48659;41.622;2.276;2022-08-19T04:04:46;6;6;
62591;PMS5003;48659;41.622;2.276;2022-08-19T04:07:14;6;6;
62591;PMS5003;48659;41.622;2.276;2022-08-19T04:09:42;9;9;
62591;PMS5003;48659;41.622;2.276;2022-08-19T04:12:10;7;7;
62591;PMS5003;48659;41.622;2.276;2022-08-19T04:14:38;7;7;
62591;PMS5003;48659;41.622;2.276;2022-08-19T04:17:15;9;7;
62591;PMS5003;48659;41.622;2.276;2022-08-19T04:19:43;7;7;
62591;PMS5003;48659;41.622;2.276;2022-08-19T04:22:15;5;5;
62591;PMS5003;48659;41.622;2.276;2022-08-19T04:24:42;5;5;
62591;PMS5003;48659;41.622;2.276;2022-08-19T04:27:15;5;5;
62591;PMS5003;48659;41.622;2.276;2022-08-19T04:29:43;6;5;
62591;PMS5003;48659;41.622;2.276;2022-08-19T04:32:15;5;5;
62591;PMS5003;48659;41.622;2.276;2022-08-19T04:34:43;6;6;
62591;PMS5003;48659;41.622;2.276;2022-08-19T04:37:25;4;4;
62591;PMS5003;48659;41.622;2.276;2022-08-19T04:39:53;3;3;
62591;PMS5003;48659;41.622;2.276;2022-08-19T04:42:21;4;4;
62591;PMS5003;48659;41.622;2.276;2022-08-19T04:44:48;4;4;
62591;PMS5003;48659;41.622;2.276;2022-08-19T04:47:16;4;4;
62591;PMS5003;48659;41.622;2.276;2022-08-19T04:49:43;6;6;
62591;PMS5003;48659;41.622;2.276;2022-08-19T04:52:10;6;6;
62591;PMS5003;48659;41.622;2.276;2022-08-19T04:54:38;5;5;
62591;PMS5003;48659;41.622;2.276;2022-08-19T04:57:06;5;5;
62591;PMS5003;48659;41.622;2.276;2022-08-19T04:59:34;4;4;
62591;PMS5003;48659;41.622;2.276;2022-08-19T05:02:02;7;6;
62591;PMS5003;48659;41.622;2.276;2022-08-19T05:04:31;8;7;
62591;PMS5003;48659;41.622;2.276;2022-08-19T05:06:59;8;6;
62591;PMS5003;48659;41.622;2.276;2022-08-19T05:09:27;7;7;
62591;PMS5003;48659;41.622;2.276;2022-08-19T05:11:56;5;5;
62591;PMS5003;48659;41.622;2.276;2022-08-19T05:14:24;8;8;
62591;PMS5003;48659;41.622;2.276;2022-08-19T05:16:51;8;8;
62591;PMS5003;48659;41.622;2.276;2022-08-19T05:19:18;6;6;
62591;PMS5003;48659;41.622;2.276;2022-08-19T05:21:45;6;6;
62591;PMS5003;48659;41.622;2.276;2022-08-19T05:24:14;6;6;
62591;PMS5003;48659;41.622;2.276;2022-08-19T05:26:43;7;7;
62591;PMS5003;48659;41.622;2.276;2022-08-19T05:29:16;10;9;
62591;PMS5003;48659;41.622;2.276;2022-08-19T05:31:46;13;9;
62591;PMS5003;48659;41.622;2.276;2022-08-19T05:34:15;12;10;
62591;PMS5003;48659;41.622;2.276;2022-08-19T05:36:44;8;8;
62591;PMS5003;48659;41.622;2.276;2022-08-19T05:39:17;11;10;
62591;PMS5003;48659;41.622;2.276;2022-08-19T05:41:46;8;8;
62591;PMS5003;48659;41.622;2.276;2022-08-19T05:44:15;9;9;
62591;PMS5003;48659;41.622;2.276;2022-08-19T05:46:44;10;10;
62591;PMS5003;48659;41.622;2.276;2022-08-19T05:49:12;8;7;
62591;PMS5003;48659;41.622;2.276;2022-08-19T05:51:41;10;8;
62591;PMS5003;48659;41.622;2.276;2022-08-19T05:54:09;9;9;
62591;PMS5003;48659;41.622;2.276;2022-08-19T05:56:36;12;12;
62591;PMS5003;48659;41.622;2.276;2022-08-19T05:59:04;11;9;
62591;PMS5003;48659;41.622;2.276;2022-08-19T06:01:41;10;10;
62591;PMS5003;48659;41.622;2.276;2022-08-19T06:04:15;6;6;
62591;PMS5003;48659;41.622;2.276;2022-08-19T06:06:43;11;9;
62591;PMS5003;48659;41.622;2.276;2022-08-19T06:09:15;9;9;
62591;PMS5003;48659;41.622;2.276;2022-08-19T06:11:43;8;8;
62591;PMS5003;48659;41.622;2.276;2022-08-19T06:14:13;10;9;
62591;PMS5003;48659;41.622;2.276;2022-08-19T06:16:42;9;7;
62591;PMS5003;48659;41.622;2.276;2022-08-19T06:19:16;9;9;
62591;PMS5003;48659;41.622;2.276;2022-08-19T06:21:45;7;7;
62591;PMS5003;48659;41.622;2.276;2022-08-19T06:24:16;7;7;
62591;PMS5003;48659;41.622;2.276;2022-08-19T06:26:45;8;8;
62591;PMS5003;48659;41.622;2.276;2022-08-19T06:29:16;6;6;
62591;PMS5003;48659;41.622;2.276;2022-08-19T06:31:47;6;6;
62591;PMS5003;48659;41.622;2.276;2022-08-19T06:34:16;10;10;
62591;PMS5003;48659;41.622;2.276;2022-08-19T06:36:45;13;11;
62591;PMS5003;48659;41.622;2.276;2022-08-19T06:39:18;12;10;
62591;PMS5003;48659;41.622;2.276;2022-08-19T06:41:47;10;10;
62591;PMS5003;48659;41.622;2.276;2022-08-19T06:44:16;11;9;
62591;PMS5003;48659;41.622;2.276;2022-08-19T06:46:45;10;8;
62591;PMS5003;48659;41.622;2.276;2022-08-19T06:49:13;9;7;
62591;PMS5003;48659;41.622;2.276;2022-08-19T06:51:40;9;9;
62591;PMS5003;48659;41.622;2.276;2022-08-19T06:54:15;10;8;
62591;PMS5003;48659;41.622;2.276;2022-08-19T06:56:44;8;8;
62591;PMS5003;48659;41.622;2.276;2022-08-19T06:59:16;10;8;
62591;PMS5003;48659;41.622;2.276;2022-08-19T07:01:45;11;9;
62591;PMS5003;48659;41.622;2.276;2022-08-19T07:04:15;7;7;
62591;PMS5003;48659;41.622;2.276;2022-08-19T07:06:45;7;7;
62591;PMS5003;48659;41.622;2.276;2022-08-19T07:09:24;4;4;
62591;PMS5003;48659;41.622;2.276;2022-08-19T07:11:52;7;7;
62591;PMS5003;48659;41.622;2.276;2022-08-19T07:14:21;7;7;
62591;PMS5003;48659;41.622;2.276;2022-08-19T07:16:53;8;7;
62591;PMS5003;48659;41.622;2.276;2022-08-19T07:19:24;6;6;
62591;PMS5003;48659;41.622;2.276;2022-08-19T07:21:52;6;6;
62591;PMS5003;48659;41.622;2.276;2022-08-19T07:24:20;6;6;
62591;PMS5003;48659;41.622;2.276;2022-08-19T07:26:50;9;8;
62591;PMS5003;48659;41.622;2.276;2022-08-19T07:29:20;6;6;
62591;PMS5003;48659;41.622;2.276;2022-08-19T07:31:48;7;7;
62591;PMS5003;48659;41.622;2.276;2022-08-19T07:34:17;7;6;
62591;PMS5003;48659;41.622;2.276;2022-08-19T07:36:45;5;5;
62591;PMS5003;48659;41.622;2.276;2022-08-19T07:39:16;4;4;
62591;PMS5003;48659;41.622;2.276;2022-08-19T07:41:45;6;6;
62591;PMS5003;48659;41.622;2.276;2022-08-19T07:44:17;5;5;
62591;PMS5003;48659;41.622;2.276;2022-08-19T07:46:48;4;4;
62591;PMS5003;48659;41.622;2.276;2022-08-19T07:49:18;5;5;
62591;PMS5003;48659;41.622;2.276;2022-08-19T07:51:47;5;4;
62591;PMS5003;48659;41.622;2.276;2022-08-19T07:54:16;4;4;
62591;PMS5003;48659;41.622;2.276;2022-08-19T07:56:44;6;6;
62591;PMS5003;48659;41.622;2.276;2022-08-19T07:59:12;4;4;
62591;PMS5003;48659;41.622;2.276;2022-08-19T08:01:40;5;4;
62591;PMS5003;48659;41.622;2.276;2022-08-19T08:04:08;5;5;
62591;PMS5003;48659;41.622;2.276;2022-08-19T08:06:36;6;6;
62591;PMS5003;48659;41.622;2.276;2022-08-19T08:09:04;6;6;
62591;PMS5003;48659;41.622;2.276;2022-08-19T08:11:33;9;9;
62591;PMS5003;48659;41.622;2.276;2022-08-19T08:14:01;7;5;
62591;PMS5003;48659;41.622;2.276;2022-08-19T08:16:28;5;5;
62591;PMS5003;48659;41.622;2.276;2022-08-19T08:18:56;5;5;
62591;PMS5003;48659;41.622;2.276;2022-08-19T08:21:24;8;8;
62591;PMS5003;48659;41.622;2.276;2022-08-19T08:23:52;9;8;
62591;PMS5003;48659;41.622;2.276;2022-08-19T08:26:19;5;5;
62591;PMS5003;48659;41.622;2.276;2022-08-19T08:28:47;7;7;
62591;PMS5003;48659;41.622;2.276;2022-08-19T08:31:15;8;8;
62591;PMS5003;48659;41.622;2.276;2022-08-19T08:33:42;6;6;
62591;PMS5003;48659;41.622;2.276;2022-08-19T08:36:10;8;8;
62591;PMS5003;48659;41.622;2.276;2022-08-19T08:38:39;8;8;
62591;PMS5003;48659;41.622;2.276;2022-08-19T08:41:18;10;10;
62591;PMS5003;48659;41.622;2.276;2022-08-19T08:43:55;11;11;
62591;PMS5003;48659;41.622;2.276;2022-08-19T08:46:24;7;6;
62591;PMS5003;48659;41.622;2.276;2022-08-19T08:48:59;8;8;
62591;PMS5003;48659;41.622;2.276;2022-08-19T08:51:33;5;5;
62591;PMS5003;48659;41.622;2.276;2022-08-19T08:54:06;15;14;
62591;PMS5003;48659;41.622;2.276;2022-08-19T08:56:37;5;5;
62591;PMS5003;48659;41.622;2.276;2022-08-19T08:59:06;8;7;
62591;PMS5003;48659;41.622;2.276;2022-08-19T09:01:40;6;6;
62591;PMS5003;48659;41.622;2.276;2022-08-19T09:04:16;7;7;
62591;PMS5003;48659;41.622;2.276;2022-08-19T09:06:47;7;7;
62591;PMS5003;48659;41.622;2.276;2022-08-19T09:09:26;5;5;
62591;PMS5003;48659;41.622;2.276;2022-08-19T09:11:57;7;7;
62591;PMS5003;48659;41.622;2.276;2022-08-19T09:14:34;9;8;
62591;PMS5003;48659;41.622;2.276;2022-08-19T09:17:05;7;7;
62591;PMS5003;48659;41.622;2.276;2022-08-19T09:19:35;5;5;
62591;PMS5003;48659;41.622;2.276;2022-08-19T09:22:13;7;7;
62591;PMS5003;48659;41.622;2.276;2022-08-19T09:24:40;7;7;
62591;PMS5003;48659;41.622;2.276;2022-08-19T09:27:15;6;4;
62591;PMS5003;48659;41.622;2.276;2022-08-19T09:29:43;5;5;
62591;PMS5003;48659;41.622;2.276;2022-08-19T09:32:11;6;6;
62591;PMS5003;48659;41.622;2.276;2022-08-19T09:34:38;4;4;
62591;PMS5003;48659;41.622;2.276;2022-08-19T09:37:06;6;6;
62591;PMS5003;48659;41.622;2.276;2022-08-19T09:39:33;6;6;
62591;PMS5003;48659;41.622;2.276;2022-08-19T09:42:01;5;5;
62591;PMS5003;48659;41.622;2.276;2022-08-19T09:44:29;9;6;
62591;PMS5003;48659;41.622;2.276;2022-08-19T09:46:57;4;4;
62591;PMS5003;48659;41.622;2.276;2022-08-19T09:49:26;5;5;
62591;PMS5003;48659;41.622;2.276;2022-08-19T09:51:54;6;6;
62591;PMS5003;48659;41.622;2.276;2022-08-19T09:54:22;5;5;
62591;PMS5003;48659;41.622;2.276;2022-08-19T09:56:49;4;4;
62591;PMS5003;48659;41.622;2.276;2022-08-19T09:59:17;6;6;
62591;PMS5003;48659;41.622;2.276;2022-08-19T10:01:44;6;6;
62591;PMS5003;48659;41.622;2.276;2022-08-19T10:04:11;5;5;
62591;PMS5003;48659;41.622;2.276;2022-08-19T10:06:39;5;5;
62591;PMS5003;48659;41.622;2.276;2022-08-19T10:09:15;5;3;
62591;PMS5003;48659;41.622;2.276;2022-08-19T10:11:44;9;7;
62591;PMS5003;48659;41.622;2.276;2022-08-19T10:14:12;4;4;
62591;PMS5003;48659;41.622;2.276;2022-08-19T10:16:39;5;5;
62591;PMS5003;48659;41.622;2.276;2022-08-19T10:19:16;6;6;
62591;PMS5003;48659;41.622;2.276;2022-08-19T10:21:43;6;4;
62591;PMS5003;48659;41.622;2.276;2022-08-19T10:24:11;7;6;
62591;PMS5003;48659;41.622;2.276;2022-08-19T10:26:41;6;6;
62591;PMS5003;48659;41.622;2.276;2022-08-19T10:29:10;6;6;
62591;PMS5003;48659;41.622;2.276;2022-08-19T10:31:38;6;6;
62591;PMS5003;48659;41.622;2.276;2022-08-19T10:34:07;7;4;
62591;PMS5003;48659;41.622;2.276;2022-08-19T10:36:35;4;4;
62591;PMS5003;48659;41.622;2.276;2022-08-19T10:39:04;6;5;
62591;PMS5003;48659;41.622;2.276;2022-08-19T10:41:35;4;4;
62591;PMS5003;48659;41.622;2.276;2022-08-19T10:44:05;4;4;
62591;PMS5003;48659;41.622;2.276;2022-08-19T10:46:37;5;5;
62591;PMS5003;48659;41.622;2.276;2022-08-19T10:49:05;3;3;
62591;PMS5003;48659;41.622;2.276;2022-08-19T10:51:41;5;5;
62591;PMS5003;48659;41.622;2.276;2022-08-19T10:54:09;5;5;
62591;PMS5003;48659;41.622;2.276;2022-08-19T10:56:36;5;5;
62591;PMS5003;48659;41.622;2.276;2022-08-19T10:59:04;4;4;
62591;PMS5003;48659;41.622;2.276;2022-08-19T11:01:32;6;5;
62591;PMS5003;48659;41.622;2.276;2022-08-19T11:04:00;5;4;
62591;PMS5003;48659;41.622;2.276;2022-08-19T11:06:29;7;7;
62591;PMS5003;48659;41.622;2.276;2022-08-19T11:08:58;5;5;
62591;PMS5003;48659;41.622;2.276;2022-08-19T11:11:31;6;5;
62591;PMS5003;48659;41.622;2.276;2022-08-19T11:13:59;5;5;
62591;PMS5003;48659;41.622;2.276;2022-08-19T11:16:26;6;4;
62591;PMS5003;48659;41.622;2.276;2022-08-19T11:18:56;2;2;
62591;PMS5003;48659;41.622;2.276;2022-08-19T11:21:26;5;5;
62591;PMS5003;48659;41.622;2.276;2022-08-19T11:23:57;7;4;
62591;PMS5003;48659;41.622;2.276;2022-08-19T11:26:27;3;3;
62591;PMS5003;48659;41.622;2.276;2022-08-19T11:28:56;3;3;
62591;PMS5003;48659;41.622;2.276;2022-08-19T11:31:25;4;4;
62591;PMS5003;48659;41.622;2.276;2022-08-19T11:33:55;5;3;
62591;PMS5003;48659;41.622;2.276;2022-08-19T11:36:23;4;4;
62591;PMS5003;48659;41.622;2.276;2022-08-19T11:38:51;5;5;
62591;PMS5003;48659;41.622;2.276;2022-08-19T11:41:20;6;6;
62591;PMS5003;48659;41.622;2.276;2022-08-19T11:43:50;4;4;
62591;PMS5003;48659;41.622;2.276;2022-08-19T11:46:18;4;4;
62591;PMS5003;48659;41.622;2.276;2022-08-19T11:48:46;3;3;
62591;PMS5003;48659;41.622;2.276;2022-08-19T11:51:17;5;5;
62591;PMS5003;48659;41.622;2.276;2022-08-19T11:53:47;3;3;
62591;PMS5003;48659;41.622;2.276;2022-08-19T11:56:17;3;3;
62591;PMS5003;48659;41.622;2.276;2022-08-19T11:58:45;2;2;
62591;PMS5003;48659;41.622;2.276;2022-08-19T12:01:14;5;5;
62591;PMS5003;48659;41.622;2.276;2022-08-19T12:03:43;6;6;
62591;PMS5003;48659;41.622;2.276;2022-08-19T12:06:17;4;4;
62591;PMS5003;48659;41.622;2.276;2022-08-19T12:08:46;3;3;
62591;PMS5003;48659;41.622;2.276;2022-08-19T12:11:14;2;2;
62591;PMS5003;48659;41.622;2.276;2022-08-19T12:13:43;2;2;
62591;PMS5003;48659;41.622;2.276;2022-08-19T12:16:11;5;3;
62591;PMS5003;48659;41.622;2.276;2022-08-19T12:18:42;1;1;
62591;PMS5003;48659;41.622;2.276;2022-08-19T12:21:11;5;3;
62591;PMS5003;48659;41.622;2.276;2022-08-19T12:23:39;3;3;
62591;PMS5003;48659;41.622;2.276;2022-08-19T12:26:16;3;3;
62591;PMS5003;48659;41.622;2.276;2022-08-19T12:28:44;3;3;
62591;PMS5003;48659;41.622;2.276;2022-08-19T12:31:16;4;4;
62591;PMS5003;48659;41.622;2.276;2022-08-19T12:33:44;6;5;
62591;PMS5003;48659;41.622;2.276;2022-08-19T12:36:25;3;3;
62591;PMS5003;48659;41.622;2.276;2022-08-19T12:38:53;5;5;
62591;PMS5003;48659;41.622;2.276;2022-08-19T12:41:21;3;3;
62591;PMS5003;48659;41.622;2.276;2022-08-19T12:43:50;4;4;
62591;PMS5003;48659;41.622;2.276;2022-08-19T12:46:18;3;3;
62591;PMS5003;48659;41.622;2.276;2022-08-19T12:48:46;2;2;
62591;PMS5003;48659;41.622;2.276;2022-08-19T12:51:15;3;3;
62591;PMS5003;48659;41.622;2.276;2022-08-19T12:53:45;4;4;
62591;PMS5003;48659;41.622;2.276;2022-08-19T12:56:13;2;2;
62591;PMS5003;48659;41.622;2.276;2022-08-19T12:58:41;3;3;
62591;PMS5003;48659;41.622;2.276;2022-08-19T13:01:15;6;5;
62591;PMS5003;48659;41.622;2.276;2022-08-19T13:03:44;6;6;
62591;PMS5003;48659;41.622;2.276;2022-08-19T13:06:15;6;6;
62591;PMS5003;48659;41.622;2.276;2022-08-19T13:08:43;6;6;
62591;PMS5003;48659;41.622;2.276;2022-08-19T13:11:12;6;5;
62591;PMS5003;48659;41.622;2.276;2022-08-19T13:13:43;8;8;
62591;PMS5003;48659;41.622;2.276;2022-08-19T13:16:12;7;7;
62591;PMS5003;48659;41.622;2.276;2022-08-19T13:18:41;6;6;
62591;PMS5003;48659;41.622;2.276;2022-08-19T13:21:16;6;6;
62591;PMS5003;48659;41.622;2.276;2022-08-19T13:23:45;5;5;
62591;PMS5003;48659;41.622;2.276;2022-08-19T13:26:13;5;5;
62591;PMS5003;48659;41.622;2.276;2022-08-19T13:28:41;5;4;
62591;PMS5003;48659;41.622;2.276;2022-08-19T13:31:17;6;6;
62591;PMS5003;48659;41.622;2.276;2022-08-19T13:33:46;5;5;
62591;PMS5003;48659;41.622;2.276;2022-08-19T13:36:15;6;4;
62591;PMS5003;48659;41.622;2.276;2022-08-19T13:38:43;6;4;
62591;PMS5003;48659;41.622;2.276;2022-08-19T13:41:15;6;6;
62591;PMS5003;48659;41.622;2.276;2022-08-19T13:43:42;6;6;
62591;PMS5003;48659;41.622;2.276;2022-08-19T13:46:15;6;6;
62591;PMS5003;48659;41.622;2.276;2022-08-19T13:48:43;4;4;
62591;PMS5003;48659;41.622;2.276;2022-08-19T13:51:15;5;5;
62591;PMS5003;48659;41.622;2.276;2022-08-19T13:53:44;6;5;
62591;PMS5003;48659;41.622;2.276;2022-08-19T13:56:16;5;5;
62591;PMS5003;48659;41.622;2.276;2022-08-19T13:58:44;6;6;
62591;PMS5003;48659;41.622;2.276;2022-08-19T14:01:19;5;5;
62591;PMS5003;48659;41.622;2.276;2022-08-19T14:03:49;7;7;
62591;PMS5003;48659;41.622;2.276;2022-08-19T14:06:17;7;6;
62591;PMS5003;48659;41.622;2.276;2022-08-19T14:08:44;5;5;
62591;PMS5003;48659;41.622;2.276;2022-08-19T14:11:12;4;4;
62591;PMS5003;48659;41.622;2.276;2022-08-19T14:13:40;5;5;
62591;PMS5003;48659;41.622;2.276;2022-08-19T14:16:26;5;5;
62591;PMS5003;48659;41.622;2.276;2022-08-19T14:18:54;4;3;
62591;PMS5003;48659;41.622;2.276;2022-08-19T14:21:26;7;6;
62591;PMS5003;48659;41.622;2.276;2022-08-19T14:23:55;4;4;
62591;PMS5003;48659;41.622;2.276;2022-08-19T14:26:22;4;4;
62591;PMS5003;48659;41.622;2.276;2022-08-19T14:28:52;5;5;
62591;PMS5003;48659;41.622;2.276;2022-08-19T14:31:20;5;5;
62591;PMS5003;48659;41.622;2.276;2022-08-19T14:33:47;6;6;
62591;PMS5003;48659;41.622;2.276;2022-08-19T14:36:15;4;4;
62591;PMS5003;48659;41.622;2.276;2022-08-19T14:38:43;4;4;
62591;PMS5003;48659;41.622;2.276;2022-08-19T14:41:19;5;5;
62591;PMS5003;48659;41.622;2.276;2022-08-19T14:43:49;5;5;
62591;PMS5003;48659;41.622;2.276;2022-08-19T14:46:19;3;3;
62591;PMS5003;48659;41.622;2.276;2022-08-19T14:48:48;7;5;
62591;PMS5003;48659;41.622;2.276;2022-08-19T14:51:15;5;5;
62591;PMS5003;48659;41.622;2.276;2022-08-19T14:53:44;5;5;
62591;PMS5003;48659;41.622;2.276;2022-08-19T14:56:13;5;5;
62591;PMS5003;48659;41.622;2.276;2022-08-19T14:58:44;5;5;
62591;PMS5003;48659;41.622;2.276;2022-08-19T15:01:13;5;5;
62591;PMS5003;48659;41.622;2.276;2022-08-19T15:03:40;5;5;
62591;PMS5003;48659;41.622;2.276;2022-08-19T15:06:19;3;3;
62591;PMS5003;48659;41.622;2.276;2022-08-19T15:08:48;3;3;
62591;PMS5003;48659;41.622;2.276;2022-08-19T15:11:16;5;4;
62591;PMS5003;48659;41.622;2.276;2022-08-19T15:13:45;3;3;
62591;PMS5003;48659;41.622;2.276;2022-08-19T15:16:17;3;3;
62591;PMS5003;48659;41.622;2.276;2022-08-19T15:18:46;5;5;
62591;PMS5003;48659;41.622;2.276;2022-08-19T15:21:16;4;4;
62591;PMS5003;48659;41.622;2.276;2022-08-19T15:23:43;5;5;
62591;PMS5003;48659;41.622;2.276;2022-08-19T15:26:11;5;4;
62591;PMS5003;48659;41.622;2.276;2022-08-19T15:28:39;4;4;
62591;PMS5003;48659;41.622;2.276;2022-08-19T15:31:16;2;2;
62591;PMS5003;48659;41.622;2.276;2022-08-19T15:33:46;5;4;
62591;PMS5003;48659;41.622;2.276;2022-08-19T15:36:15;4;4;
62591;PMS5003;48659;41.622;2.276;2022-08-19T15:38:43;4;4;
62591;PMS5003;48659;41.622;2.276;2022-08-19T15:41:16;4;4;
62591;PMS5003;48659;41.622;2.276;2022-08-19T15:43:45;5;5;
62591;PMS5003;48659;41.622;2.276;2022-08-19T15:46:16;3;3;
62591;PMS5003;48659;41.622;2.276;2022-08-19T15:48:45;5;3;
62591;PMS5003;48659;41.622;2.276;2022-08-19T15:51:12;4;4;
62591;PMS5003;48659;41.622;2.276;2022-08-19T15:53:40;3;3;
62591;PMS5003;48659;41.622;2.276;2022-08-19T15:56:08;4;3;
62591;PMS5003;48659;41.622;2.276;2022-08-19T15:58:37;6;4;
62591;PMS5003;48659;41.622;2.276;2022-08-19T16:01:05;4;4;
62591;PMS5003;48659;41.622;2.276;2022-08-19T16:03:35;2;2;
62591;PMS5003;48659;41.622;2.276;2022-08-19T16:06:03;4;4;
62591;PMS5003;48659;41.622;2.276;2022-08-19T16:08:31;4;4;
62591;PMS5003;48659;41.622;2.276;2022-08-19T16:10:58;5;3;
62591;PMS5003;48659;41.622;2.276;2022-08-19T16:13:26;4;4;
62591;PMS5003;48659;41.622;2.276;2022-08-19T16:15:54;4;4;
62591;PMS5003;48659;41.622;2.276;2022-08-19T16:18:20;3;3;
62591;PMS5003;48659;41.622;2.276;2022-08-19T16:20:48;2;2;
62591;PMS5003;48659;41.622;2.276;2022-08-19T16:23:16;5;5;
62591;PMS5003;48659;41.622;2.276;2022-08-19T16:25:44;4;4;
62591;PMS5003;48659;41.622;2.276;2022-08-19T16:28:15;3;3;
62591;PMS5003;48659;41.622;2.276;2022-08-19T16:30:42;6;5;
62591;PMS5003;48659;41.622;2.276;2022-08-19T16:33:15;4;4;
62591;PMS5003;48659;41.622;2.276;2022-08-19T16:35:43;4;4;
62591;PMS5003;48659;41.622;2.276;2022-08-19T16:38:10;6;6;
62591;PMS5003;48659;41.622;2.276;2022-08-19T16:40:38;5;3;
62591;PMS5003;48659;41.622;2.276;2022-08-19T16:43:05;4;4;
62591;PMS5003;48659;41.622;2.276;2022-08-19T16:45:32;3;3;
62591;PMS5003;48659;41.622;2.276;2022-08-19T16:48:00;5;5;
62591;PMS5003;48659;41.622;2.276;2022-08-19T16:50:28;4;4;
62591;PMS5003;48659;41.622;2.276;2022-08-19T16:52:55;4;4;
62591;PMS5003;48659;41.622;2.276;2022-08-19T16:55:23;5;5;
62591;PMS5003;48659;41.622;2.276;2022-08-19T16:57:51;3;3;
62591;PMS5003;48659;41.622;2.276;2022-08-19T17:00:18;5;5;
62591;PMS5003;48659;41.622;2.276;2022-08-19T17:02:46;6;4;